ZSZDF FAGG-FACT
Flight info
| Callsign | ZSZDF |
|---|---|
| Flight time | 1h 14m |
| Altitude | 18000 |
| Route | APGUP DCT ETBUL UQ49 ESRUK UQ51 GETEN GETEN1C |
| Aircraft | C414/L-SBDFGRY/S |
Departure
| Time | 2026-04-25 10:43 |
|---|---|
| Airport | George Airport (FAGG) |
Arrival
| Time | 2026-04-25 11:58 |
|---|---|
| Airport | Cape Town International Airport (FACT) |
| Time | Latitude | Longitude | Altitude | Speed | Heading |
|---|---|---|---|---|---|
| 2026-04-25 10:11 | -34.00081 | 22.38089 | 642 ft | 0 kts | 97° |
| 2026-04-25 10:30 | -34.00079 | 22.38069 | 642 ft | 3 kts | 97° |
| 2026-04-25 10:31 | -34.00078 | 22.38063 | 642 ft | 0 kts | 97° |
| 2026-04-25 10:36 | -34.00081 | 22.38069 | 642 ft | 2 kts | 143° |
| 2026-04-25 10:37 | -34.00092 | 22.38063 | 642 ft | 0 kts | 245° |
| 2026-04-25 10:37 | -34.00092 | 22.38062 | 642 ft | 2 kts | 245° |
| 2026-04-25 10:38 | -34.00109 | 22.38039 | 642 ft | 9 kts | 207° |
| 2026-04-25 10:38 | -34.00185 | 22.38040 | 642 ft | 7 kts | 160° |
| 2026-04-25 10:38 | -34.00211 | 22.38052 | 642 ft | 6 kts | 157° |
| 2026-04-25 10:38 | -34.00251 | 22.38088 | 642 ft | 8 kts | 135° |
| 2026-04-25 10:39 | -34.00292 | 22.38145 | 643 ft | 10 kts | 115° |
| 2026-04-25 10:39 | -34.00326 | 22.38259 | 644 ft | 12 kts | 91° |
| 2026-04-25 10:39 | -34.00326 | 22.38330 | 645 ft | 13 kts | 92° |
| 2026-04-25 10:39 | -34.00320 | 22.38486 | 647 ft | 15 kts | 87° |
| 2026-04-25 10:40 | -34.00316 | 22.38619 | 648 ft | 17 kts | 88° |
| 2026-04-25 10:40 | -34.00314 | 22.38762 | 650 ft | 17 kts | 87° |
| 2026-04-25 10:40 | -34.00317 | 22.38857 | 651 ft | 16 kts | 114° |
| 2026-04-25 10:40 | -34.00347 | 22.38898 | 651 ft | 5 kts | 144° |
| 2026-04-25 10:41 | -34.00404 | 22.38918 | 652 ft | 9 kts | 180° |
| 2026-04-25 10:41 | -34.00451 | 22.38918 | 652 ft | 5 kts | 180° |
| 2026-04-25 10:41 | -34.00479 | 22.38918 | 652 ft | 4 kts | 180° |
| 2026-04-25 10:41 | -34.00513 | 22.38908 | 652 ft | 7 kts | 219° |
| 2026-04-25 10:42 | -34.00520 | 22.38873 | 651 ft | 0 kts | 266° |
| 2026-04-25 10:42 | -34.00521 | 22.38863 | 651 ft | 8 kts | 267° |
| 2026-04-25 10:42 | -34.00530 | 22.38581 | 646 ft | 60 kts | 266° |
| 2026-04-25 10:42 | -34.00548 | 22.37909 | 685 ft | 94 kts | 270° |
| 2026-04-25 10:43 | -34.00549 | 22.37088 | 941 ft | 99 kts | 265° |
| 2026-04-25 10:43 | -34.00594 | 22.36242 | 1217 ft | 106 kts | 263° |
| 2026-04-25 10:43 | -34.00724 | 22.35337 | 1411 ft | 113 kts | 259° |
| 2026-04-25 10:43 | -34.00930 | 22.34426 | 1724 ft | 113 kts | 266° |
| 2026-04-25 10:44 | -34.01133 | 22.33503 | 2030 ft | 114 kts | 259° |
| 2026-04-25 10:44 | -34.01331 | 22.32578 | 2309 ft | 112 kts | 274° |
| 2026-04-25 10:44 | -34.01283 | 22.31651 | 2599 ft | 111 kts | 274° |
| 2026-04-25 10:44 | -34.01321 | 22.30723 | 2939 ft | 110 kts | 276° |
| 2026-04-25 10:45 | -34.01312 | 22.29804 | 3399 ft | 110 kts | 273° |
| 2026-04-25 10:45 | -34.01326 | 22.28890 | 3864 ft | 108 kts | 276° |
| 2026-04-25 10:45 | -34.01347 | 22.27993 | 4296 ft | 108 kts | 274° |
| 2026-04-25 10:45 | -34.01378 | 22.27094 | 4617 ft | 107 kts | 274° |
| 2026-04-25 10:46 | -34.01398 | 22.26204 | 4861 ft | 106 kts | 274° |
| 2026-04-25 10:46 | -34.01420 | 22.25329 | 5172 ft | 106 kts | 275° |
| 2026-04-25 10:46 | -34.01445 | 22.24445 | 5458 ft | 107 kts | 274° |
| 2026-04-25 10:46 | -34.01468 | 22.23514 | 5687 ft | 114 kts | 274° |
| 2026-04-25 10:47 | -34.01495 | 22.22523 | 5935 ft | 123 kts | 272° |
| 2026-04-25 10:47 | -34.01521 | 22.21449 | 6180 ft | 132 kts | 273° |
| 2026-04-25 10:47 | -34.01549 | 22.20330 | 6403 ft | 135 kts | 272° |
| 2026-04-25 10:47 | -34.01586 | 22.19197 | 6626 ft | 135 kts | 273° |
| 2026-04-25 10:48 | -34.01614 | 22.18046 | 6853 ft | 139 kts | 273° |
| 2026-04-25 10:48 | -34.01645 | 22.16870 | 7074 ft | 141 kts | 272° |
| 2026-04-25 10:48 | -34.01676 | 22.15674 | 7289 ft | 143 kts | 272° |
| 2026-04-25 10:48 | -34.01707 | 22.14474 | 7509 ft | 146 kts | 273° |
| 2026-04-25 10:49 | -34.01739 | 22.13246 | 7732 ft | 147 kts | 272° |
| 2026-04-25 10:49 | -34.01771 | 22.12001 | 7960 ft | 150 kts | 273° |
| 2026-04-25 10:49 | -34.01804 | 22.10736 | 8178 ft | 151 kts | 273° |
| 2026-04-25 10:49 | -34.01835 | 22.09466 | 8405 ft | 152 kts | 273° |
| 2026-04-25 10:50 | -34.01873 | 22.08189 | 8621 ft | 152 kts | 273° |
| 2026-04-25 10:50 | -34.01904 | 22.06910 | 8850 ft | 152 kts | 273° |
| 2026-04-25 10:50 | -34.01936 | 22.05636 | 9082 ft | 152 kts | 272° |
| 2026-04-25 10:50 | -34.01967 | 22.04355 | 9312 ft | 153 kts | 273° |
| 2026-04-25 10:51 | -34.01998 | 22.03070 | 9547 ft | 154 kts | 273° |
| 2026-04-25 10:51 | -34.02032 | 22.01782 | 9771 ft | 152 kts | 273° |
| 2026-04-25 10:51 | -34.02065 | 22.00503 | 9983 ft | 153 kts | 273° |
| 2026-04-25 10:51 | -34.02098 | 21.99228 | 10190 ft | 151 kts | 272° |
| 2026-04-25 10:52 | -34.02128 | 21.97955 | 10396 ft | 153 kts | 273° |
| 2026-04-25 10:52 | -34.02157 | 21.96674 | 10615 ft | 154 kts | 272° |
| 2026-04-25 10:52 | -34.02194 | 21.95383 | 10827 ft | 154 kts | 272° |
| 2026-04-25 10:52 | -34.02225 | 21.94093 | 11045 ft | 155 kts | 272° |
| 2026-04-25 10:53 | -34.02255 | 21.92792 | 11259 ft | 155 kts | 272° |
| 2026-04-25 10:53 | -34.02287 | 21.91492 | 11474 ft | 156 kts | 272° |
| 2026-04-25 10:53 | -34.02318 | 21.90201 | 11695 ft | 156 kts | 272° |
| 2026-04-25 10:53 | -34.02350 | 21.88890 | 11922 ft | 157 kts | 272° |
| 2026-04-25 10:54 | -34.02381 | 21.87569 | 12133 ft | 158 kts | 272° |
| 2026-04-25 10:54 | -34.02404 | 21.86696 | 12288 ft | 157 kts | 272° |
| 2026-04-25 10:54 | -34.02447 | 21.84934 | 12590 ft | 157 kts | 272° |
| 2026-04-25 10:54 | -34.02476 | 21.83610 | 12819 ft | 158 kts | 272° |
| 2026-04-25 10:55 | -34.02506 | 21.82280 | 13050 ft | 159 kts | 272° |
| 2026-04-25 10:55 | -34.02538 | 21.80948 | 13284 ft | 159 kts | 272° |
| 2026-04-25 10:55 | -34.02570 | 21.79613 | 13511 ft | 159 kts | 272° |
| 2026-04-25 10:55 | -34.02601 | 21.78299 | 13736 ft | 158 kts | 272° |
| 2026-04-25 10:56 | -34.02630 | 21.76968 | 13945 ft | 159 kts | 272° |
| 2026-04-25 10:56 | -34.02662 | 21.75630 | 14154 ft | 160 kts | 272° |
| 2026-04-25 10:56 | -34.02693 | 21.74291 | 14369 ft | 160 kts | 272° |
| 2026-04-25 10:56 | -34.02724 | 21.72943 | 14577 ft | 161 kts | 272° |
| 2026-04-25 10:57 | -34.02755 | 21.71595 | 14791 ft | 161 kts | 272° |
| 2026-04-25 10:57 | -34.02784 | 21.70249 | 15009 ft | 161 kts | 272° |
| 2026-04-25 10:57 | -34.02815 | 21.68903 | 15224 ft | 161 kts | 272° |
| 2026-04-25 10:57 | -34.02846 | 21.67561 | 15442 ft | 160 kts | 272° |
| 2026-04-25 10:58 | -34.02876 | 21.66222 | 15660 ft | 160 kts | 272° |
| 2026-04-25 10:58 | -34.02905 | 21.64884 | 15879 ft | 160 kts | 271° |
| 2026-04-25 10:58 | -34.02934 | 21.63550 | 16103 ft | 159 kts | 272° |
| 2026-04-25 10:58 | -34.02963 | 21.62215 | 16329 ft | 159 kts | 271° |
| 2026-04-25 10:59 | -34.02992 | 21.60878 | 16553 ft | 160 kts | 272° |
| 2026-04-25 10:59 | -34.03021 | 21.59538 | 16783 ft | 160 kts | 271° |
| 2026-04-25 10:59 | -34.03052 | 21.58194 | 17014 ft | 160 kts | 271° |
| 2026-04-25 10:59 | -34.03081 | 21.56862 | 17246 ft | 161 kts | 271° |
| 2026-04-25 11:00 | -34.03109 | 21.55509 | 17478 ft | 161 kts | 271° |
| 2026-04-25 11:00 | -34.03138 | 21.54157 | 17712 ft | 161 kts | 271° |
| 2026-04-25 11:00 | -34.03166 | 21.52799 | 17865 ft | 166 kts | 270° |
| 2026-04-25 11:00 | -34.03194 | 21.51357 | 17876 ft | 177 kts | 271° |
| 2026-04-25 11:01 | -34.03225 | 21.49833 | 17879 ft | 187 kts | 271° |
| 2026-04-25 11:01 | -34.03258 | 21.48250 | 17881 ft | 190 kts | 271° |
| 2026-04-25 11:01 | -34.03291 | 21.46656 | 17883 ft | 190 kts | 270° |
| 2026-04-25 11:01 | -34.03325 | 21.45062 | 17883 ft | 191 kts | 270° |
| 2026-04-25 11:02 | -34.03359 | 21.43461 | 17881 ft | 191 kts | 271° |
| 2026-04-25 11:02 | -34.03391 | 21.41859 | 17873 ft | 192 kts | 270° |
| 2026-04-25 11:02 | -34.03424 | 21.40251 | 17878 ft | 192 kts | 270° |
| 2026-04-25 11:02 | -34.03456 | 21.38641 | 17873 ft | 192 kts | 270° |
| 2026-04-25 11:03 | -34.03485 | 21.37101 | 17878 ft | 192 kts | 270° |
| 2026-04-25 11:03 | -34.03517 | 21.35490 | 17873 ft | 192 kts | 270° |
| 2026-04-25 11:03 | -34.03549 | 21.33897 | 17873 ft | 192 kts | 270° |
| 2026-04-25 11:03 | -34.03580 | 21.32289 | 17873 ft | 192 kts | 270° |
| 2026-04-25 11:04 | -34.03613 | 21.30681 | 17874 ft | 192 kts | 270° |
| 2026-04-25 11:04 | -34.03644 | 21.29071 | 17872 ft | 192 kts | 270° |
| 2026-04-25 11:04 | -34.03674 | 21.27461 | 17875 ft | 192 kts | 270° |
| 2026-04-25 11:04 | -34.03693 | 21.26368 | 17871 ft | 193 kts | 270° |
| 2026-04-25 11:05 | -34.03736 | 21.24227 | 17873 ft | 193 kts | 270° |
| 2026-04-25 11:05 | -34.03766 | 21.22615 | 17875 ft | 192 kts | 270° |
| 2026-04-25 11:05 | -34.03796 | 21.21000 | 17873 ft | 193 kts | 270° |
| 2026-04-25 11:05 | -34.03826 | 21.19381 | 17874 ft | 193 kts | 269° |
| 2026-04-25 11:06 | -34.03855 | 21.17760 | 17873 ft | 193 kts | 269° |
| 2026-04-25 11:06 | -34.03885 | 21.16142 | 17873 ft | 193 kts | 270° |
| 2026-04-25 11:06 | -34.03914 | 21.14523 | 17881 ft | 193 kts | 269° |
| 2026-04-25 11:06 | -34.03944 | 21.12902 | 17880 ft | 194 kts | 269° |
| 2026-04-25 11:07 | -34.03972 | 21.11278 | 17878 ft | 194 kts | 269° |
| 2026-04-25 11:07 | -34.04001 | 21.09652 | 17881 ft | 194 kts | 269° |
| 2026-04-25 11:07 | -34.04031 | 21.08030 | 17882 ft | 193 kts | 269° |
| 2026-04-25 11:07 | -34.04058 | 21.06405 | 17880 ft | 194 kts | 269° |
| 2026-04-25 11:08 | -34.04085 | 21.04783 | 17883 ft | 194 kts | 269° |
| 2026-04-25 11:08 | -34.04115 | 21.03161 | 17876 ft | 194 kts | 269° |
| 2026-04-25 11:08 | -34.04142 | 21.01540 | 17878 ft | 193 kts | 270° |
| 2026-04-25 11:08 | -34.04168 | 20.99920 | 17879 ft | 193 kts | 269° |
| 2026-04-25 11:09 | -34.04197 | 20.98329 | 17880 ft | 194 kts | 269° |
| 2026-04-25 11:09 | -34.04223 | 20.96723 | 17880 ft | 194 kts | 270° |
| 2026-04-25 11:09 | -34.04250 | 20.95091 | 17879 ft | 194 kts | 269° |
| 2026-04-25 11:09 | -34.04277 | 20.93462 | 17879 ft | 195 kts | 269° |
| 2026-04-25 11:10 | -34.04302 | 20.91862 | 17879 ft | 194 kts | 270° |
| 2026-04-25 11:10 | -34.04319 | 20.90762 | 17882 ft | 195 kts | 269° |
| 2026-04-25 11:10 | -34.04355 | 20.88597 | 17880 ft | 194 kts | 269° |
| 2026-04-25 11:10 | -34.04380 | 20.86965 | 17879 ft | 194 kts | 269° |
| 2026-04-25 11:11 | -34.04406 | 20.85336 | 17880 ft | 194 kts | 269° |
| 2026-04-25 11:11 | -34.04432 | 20.83704 | 17883 ft | 194 kts | 269° |
| 2026-04-25 11:11 | -34.04457 | 20.82075 | 17881 ft | 195 kts | 269° |
| 2026-04-25 11:11 | -34.04482 | 20.80444 | 17879 ft | 194 kts | 269° |
| 2026-04-25 11:12 | -34.04507 | 20.78814 | 17879 ft | 194 kts | 269° |
| 2026-04-25 11:12 | -34.04531 | 20.77184 | 17884 ft | 195 kts | 270° |
| 2026-04-25 11:12 | -34.04555 | 20.75550 | 17879 ft | 195 kts | 269° |
| 2026-04-25 11:12 | -34.04579 | 20.73912 | 17877 ft | 195 kts | 269° |
| 2026-04-25 11:13 | -34.04604 | 20.72296 | 17878 ft | 195 kts | 269° |
| 2026-04-25 11:13 | -34.04628 | 20.70658 | 17881 ft | 195 kts | 269° |
| 2026-04-25 11:13 | -34.04651 | 20.69021 | 17877 ft | 195 kts | 269° |
| 2026-04-25 11:13 | -34.04676 | 20.67386 | 17882 ft | 195 kts | 269° |
| 2026-04-25 11:14 | -34.04698 | 20.65752 | 17880 ft | 195 kts | 269° |
| 2026-04-25 11:14 | -34.04720 | 20.64119 | 17877 ft | 194 kts | 269° |
| 2026-04-25 11:14 | -34.04742 | 20.62493 | 17875 ft | 194 kts | 269° |
| 2026-04-25 11:14 | -34.04765 | 20.60869 | 17878 ft | 194 kts | 269° |
| 2026-04-25 11:15 | -34.04787 | 20.59279 | 17874 ft | 194 kts | 269° |
| 2026-04-25 11:15 | -34.04806 | 20.57655 | 17875 ft | 194 kts | 270° |
| 2026-04-25 11:15 | -34.04831 | 20.56034 | 17875 ft | 193 kts | 269° |
| 2026-04-25 11:15 | -34.04852 | 20.54415 | 17874 ft | 193 kts | 270° |
| 2026-04-25 11:16 | -34.04894 | 20.51211 | 17873 ft | 193 kts | 269° |
| 2026-04-25 11:16 | -34.04915 | 20.49594 | 17874 ft | 193 kts | 270° |
| 2026-04-25 11:16 | -34.04935 | 20.47996 | 17874 ft | 193 kts | 270° |
| 2026-04-25 11:17 | -34.04956 | 20.46359 | 17869 ft | 193 kts | 270° |
| 2026-04-25 11:17 | -34.04976 | 20.44762 | 17876 ft | 193 kts | 270° |
| 2026-04-25 11:17 | -34.04995 | 20.43143 | 17878 ft | 193 kts | 270° |
| 2026-04-25 11:17 | -34.05015 | 20.41521 | 17875 ft | 193 kts | 270° |
| 2026-04-25 11:18 | -34.05035 | 20.39902 | 17881 ft | 193 kts | 269° |
| 2026-04-25 11:18 | -34.05054 | 20.38285 | 17877 ft | 192 kts | 270° |
| 2026-04-25 11:18 | -34.05073 | 20.36666 | 17875 ft | 193 kts | 270° |
| 2026-04-25 11:18 | -34.05093 | 20.35050 | 17871 ft | 193 kts | 270° |
| 2026-04-25 11:19 | -34.05110 | 20.33437 | 17873 ft | 192 kts | 270° |
| 2026-04-25 11:19 | -34.05129 | 20.31829 | 17874 ft | 192 kts | 269° |
| 2026-04-25 11:19 | -34.05146 | 20.30220 | 17871 ft | 191 kts | 270° |
| 2026-04-25 11:19 | -34.05165 | 20.28616 | 17873 ft | 192 kts | 270° |
| 2026-04-25 11:20 | -34.05184 | 20.27008 | 17871 ft | 192 kts | 270° |
| 2026-04-25 11:20 | -34.05200 | 20.25418 | 17871 ft | 192 kts | 270° |
| 2026-04-25 11:20 | -34.05216 | 20.23811 | 17875 ft | 192 kts | 270° |
| 2026-04-25 11:20 | -34.05234 | 20.22201 | 17871 ft | 192 kts | 270° |
| 2026-04-25 11:21 | -34.05250 | 20.20593 | 17872 ft | 192 kts | 270° |
| 2026-04-25 11:21 | -34.05269 | 20.18975 | 17871 ft | 192 kts | 270° |
| 2026-04-25 11:21 | -34.05285 | 20.17364 | 17877 ft | 192 kts | 270° |
| 2026-04-25 11:21 | -34.05301 | 20.15754 | 17877 ft | 192 kts | 270° |
| 2026-04-25 11:22 | -34.05317 | 20.14143 | 17873 ft | 192 kts | 270° |
| 2026-04-25 11:22 | -34.05327 | 20.13080 | 17873 ft | 191 kts | 270° |
| 2026-04-25 11:22 | -34.05347 | 20.10940 | 17876 ft | 191 kts | 270° |
| 2026-04-25 11:22 | -34.05364 | 20.09340 | 17871 ft | 191 kts | 270° |
| 2026-04-25 11:23 | -34.05379 | 20.07760 | 17870 ft | 191 kts | 270° |
| 2026-04-25 11:23 | -34.05393 | 20.06165 | 17875 ft | 190 kts | 270° |
| 2026-04-25 11:23 | -34.05408 | 20.04568 | 17870 ft | 190 kts | 270° |
| 2026-04-25 11:23 | -34.05422 | 20.02977 | 17874 ft | 190 kts | 270° |
| 2026-04-25 11:24 | -34.05436 | 20.01383 | 17874 ft | 190 kts | 270° |
| 2026-04-25 11:24 | -34.05449 | 19.99784 | 17876 ft | 191 kts | 270° |
| 2026-04-25 11:24 | -34.05462 | 19.98181 | 17878 ft | 191 kts | 270° |
| 2026-04-25 11:24 | -34.05470 | 19.97122 | 17877 ft | 191 kts | 270° |
| 2026-04-25 11:25 | -34.05483 | 19.95525 | 17879 ft | 191 kts | 270° |
| 2026-04-25 11:25 | -34.05494 | 19.93919 | 17877 ft | 191 kts | 270° |
| 2026-04-25 11:25 | -34.05511 | 19.91786 | 17870 ft | 190 kts | 270° |
| 2026-04-25 11:25 | -34.05524 | 19.90732 | 17870 ft | 189 kts | 271° |
| 2026-04-25 11:26 | -34.05540 | 19.89148 | 17871 ft | 189 kts | 271° |
| 2026-04-25 11:26 | -34.05552 | 19.87561 | 17875 ft | 189 kts | 271° |
| 2026-04-25 11:26 | -34.05563 | 19.85975 | 17876 ft | 189 kts | 271° |
| 2026-04-25 11:26 | -34.05580 | 19.83872 | 17876 ft | 190 kts | 271° |
| 2026-04-25 11:27 | -34.05583 | 19.82797 | 17877 ft | 189 kts | 271° |
| 2026-04-25 11:27 | -34.05600 | 19.81214 | 17877 ft | 188 kts | 271° |
| 2026-04-25 11:27 | -34.05612 | 19.79634 | 17873 ft | 188 kts | 271° |
| 2026-04-25 11:27 | -34.05619 | 19.78594 | 17877 ft | 187 kts | 271° |
| 2026-04-25 11:28 | -34.05632 | 19.76492 | 17865 ft | 188 kts | 271° |
| 2026-04-25 11:28 | -34.05643 | 19.74926 | 17800 ft | 191 kts | 271° |
| 2026-04-25 11:28 | -34.05653 | 19.73282 | 17593 ft | 199 kts | 271° |
| 2026-04-25 11:28 | -34.05663 | 19.71586 | 17396 ft | 205 kts | 271° |
| 2026-04-25 11:29 | -34.05674 | 19.69885 | 17204 ft | 208 kts | 271° |
| 2026-04-25 11:29 | -34.05685 | 19.68121 | 17007 ft | 211 kts | 271° |
| 2026-04-25 11:29 | -34.05696 | 19.66337 | 16755 ft | 214 kts | 271° |
| 2026-04-25 11:29 | -34.05708 | 19.64528 | 16510 ft | 216 kts | 272° |
| 2026-04-25 11:30 | -34.05717 | 19.62748 | 16268 ft | 217 kts | 272° |
| 2026-04-25 11:30 | -34.05727 | 19.60920 | 16029 ft | 218 kts | 272° |
| 2026-04-25 11:30 | -34.05625 | 19.59106 | 15785 ft | 217 kts | 275° |
| 2026-04-25 11:30 | -34.05634 | 19.57283 | 15544 ft | 218 kts | 270° |
| 2026-04-25 11:31 | -34.05704 | 19.55460 | 15302 ft | 218 kts | 270° |
| 2026-04-25 11:31 | -34.05784 | 19.53635 | 15068 ft | 217 kts | 270° |
| 2026-04-25 11:31 | -34.05868 | 19.51814 | 14835 ft | 218 kts | 269° |
| 2026-04-25 11:31 | -34.05956 | 19.49990 | 14601 ft | 218 kts | 270° |
| 2026-04-25 11:32 | -34.06049 | 19.48171 | 14368 ft | 217 kts | 270° |
| 2026-04-25 11:32 | -34.06149 | 19.46356 | 14140 ft | 216 kts | 270° |
| 2026-04-25 11:32 | -34.06249 | 19.44547 | 13907 ft | 216 kts | 270° |
| 2026-04-25 11:32 | -34.06350 | 19.42744 | 13678 ft | 215 kts | 270° |
| 2026-04-25 11:33 | -34.06453 | 19.40949 | 13423 ft | 214 kts | 270° |
| 2026-04-25 11:33 | -34.06565 | 19.39159 | 13164 ft | 214 kts | 269° |
| 2026-04-25 11:33 | -34.06675 | 19.37399 | 12912 ft | 213 kts | 269° |
| 2026-04-25 11:33 | -34.06785 | 19.35628 | 12660 ft | 211 kts | 269° |
| 2026-04-25 11:34 | -34.06898 | 19.33863 | 12408 ft | 211 kts | 270° |
| 2026-04-25 11:34 | -34.07021 | 19.32099 | 12159 ft | 211 kts | 269° |
| 2026-04-25 11:34 | -34.07140 | 19.30337 | 11920 ft | 210 kts | 269° |
| 2026-04-25 11:34 | -34.07260 | 19.28581 | 11671 ft | 210 kts | 269° |
| 2026-04-25 11:35 | -34.07381 | 19.26829 | 11426 ft | 209 kts | 269° |
| 2026-04-25 11:35 | -34.07503 | 19.25090 | 11192 ft | 208 kts | 269° |
| 2026-04-25 11:35 | -34.07624 | 19.23362 | 10951 ft | 206 kts | 269° |
| 2026-04-25 11:35 | -34.07746 | 19.21639 | 10718 ft | 206 kts | 269° |
| 2026-04-25 11:36 | -34.07856 | 19.19939 | 10483 ft | 205 kts | 270° |
| 2026-04-25 11:36 | -34.07961 | 19.18226 | 10253 ft | 205 kts | 270° |
| 2026-04-25 11:36 | -34.08065 | 19.16517 | 10023 ft | 204 kts | 270° |
| 2026-04-25 11:36 | -34.08173 | 19.14813 | 9786 ft | 203 kts | 270° |
| 2026-04-25 11:37 | -34.08286 | 19.13114 | 9535 ft | 203 kts | 270° |
| 2026-04-25 11:37 | -34.08402 | 19.11427 | 9344 ft | 200 kts | 270° |
| 2026-04-25 11:37 | -34.08518 | 19.09770 | 9189 ft | 196 kts | 270° |
| 2026-04-25 11:37 | -34.08636 | 19.08136 | 9033 ft | 194 kts | 270° |
| 2026-04-25 11:38 | -34.08758 | 19.06521 | 8879 ft | 193 kts | 270° |
| 2026-04-25 11:38 | -34.09173 | 19.04978 | 8716 ft | 204 kts | 239° |
| 2026-04-25 11:38 | -34.10402 | 19.04054 | 8554 ft | 221 kts | 198° |
| 2026-04-25 11:38 | -34.11950 | 19.04220 | 8393 ft | 229 kts | 167° |
| 2026-04-25 11:39 | -34.13461 | 19.04875 | 8249 ft | 232 kts | 163° |
| 2026-04-25 11:39 | -34.14983 | 19.05575 | 8106 ft | 236 kts | 163° |
| 2026-04-25 11:39 | -34.16514 | 19.06287 | 7993 ft | 235 kts | 162° |
| 2026-04-25 11:39 | -34.18025 | 19.06993 | 7990 ft | 230 kts | 163° |
| 2026-04-25 11:40 | -34.19508 | 19.07690 | 7987 ft | 226 kts | 162° |
| 2026-04-25 11:40 | -34.20976 | 19.08381 | 7917 ft | 228 kts | 162° |
| 2026-04-25 11:40 | -34.22453 | 19.09084 | 7754 ft | 234 kts | 162° |
| 2026-04-25 11:40 | -34.23981 | 19.09810 | 7587 ft | 237 kts | 162° |
| 2026-04-25 11:41 | -34.25491 | 19.10525 | 7421 ft | 239 kts | 162° |
| 2026-04-25 11:41 | -34.27077 | 19.11044 | 7260 ft | 233 kts | 186° |
| 2026-04-25 11:41 | -34.28526 | 19.10465 | 7097 ft | 214 kts | 226° |
| 2026-04-25 11:41 | -34.29274 | 19.09040 | 6949 ft | 196 kts | 261° |
| 2026-04-25 11:42 | -34.29531 | 19.07471 | 6802 ft | 194 kts | 266° |
| 2026-04-25 11:42 | -34.29739 | 19.05850 | 6642 ft | 195 kts | 267° |
| 2026-04-25 11:42 | -34.29938 | 19.04227 | 6482 ft | 194 kts | 267° |
| 2026-04-25 11:42 | -34.30142 | 19.02605 | 6317 ft | 195 kts | 267° |
| 2026-04-25 11:43 | -34.30347 | 19.01001 | 6140 ft | 191 kts | 267° |
| 2026-04-25 11:43 | -34.30556 | 18.99411 | 5996 ft | 192 kts | 267° |
| 2026-04-25 11:43 | -34.30734 | 18.97838 | 5974 ft | 184 kts | 267° |
| 2026-04-25 11:43 | -34.30885 | 18.96335 | 5985 ft | 179 kts | 268° |
| 2026-04-25 11:44 | -34.31049 | 18.94849 | 5981 ft | 177 kts | 268° |
| 2026-04-25 11:44 | -34.31226 | 18.93386 | 5992 ft | 173 kts | 268° |
| 2026-04-25 11:44 | -34.31410 | 18.91932 | 5990 ft | 176 kts | 268° |
| 2026-04-25 11:44 | -34.31591 | 18.90465 | 5988 ft | 178 kts | 268° |
| 2026-04-25 11:45 | -34.31775 | 18.88993 | 5992 ft | 177 kts | 268° |
| 2026-04-25 11:45 | -34.31959 | 18.87510 | 5841 ft | 185 kts | 268° |
| 2026-04-25 11:45 | -34.32147 | 18.85943 | 5599 ft | 191 kts | 268° |
| 2026-04-25 11:45 | -34.32341 | 18.84332 | 5357 ft | 195 kts | 268° |
| 2026-04-25 11:46 | -34.32539 | 18.82693 | 5125 ft | 198 kts | 268° |
| 2026-04-25 11:46 | -34.32732 | 18.81033 | 4881 ft | 200 kts | 267° |
| 2026-04-25 11:46 | -34.32925 | 18.79362 | 4641 ft | 201 kts | 268° |
| 2026-04-25 11:46 | -34.33122 | 18.77700 | 4507 ft | 198 kts | 268° |
| 2026-04-25 11:47 | -34.33262 | 18.76114 | 4498 ft | 186 kts | 280° |
| 2026-04-25 11:47 | -34.32744 | 18.74785 | 4504 ft | 176 kts | 310° |
| 2026-04-25 11:47 | -34.31953 | 18.73672 | 4504 ft | 173 kts | 312° |
| 2026-04-25 11:47 | -34.31158 | 18.72584 | 4501 ft | 172 kts | 312° |
| 2026-04-25 11:48 | -34.30335 | 18.71590 | 4507 ft | 170 kts | 324° |
| 2026-04-25 11:48 | -34.29328 | 18.70832 | 4501 ft | 170 kts | 332° |
| 2026-04-25 11:48 | -34.28211 | 18.70340 | 4508 ft | 171 kts | 340° |
| 2026-04-25 11:48 | -34.27066 | 18.69931 | 4507 ft | 172 kts | 341° |
| 2026-04-25 11:49 | -34.25911 | 18.69543 | 4505 ft | 172 kts | 342° |
| 2026-04-25 11:49 | -34.24752 | 18.69181 | 4509 ft | 172 kts | 342° |
| 2026-04-25 11:49 | -34.23610 | 18.68811 | 4505 ft | 166 kts | 342° |
| 2026-04-25 11:49 | -34.22517 | 18.68466 | 4500 ft | 157 kts | 342° |
| 2026-04-25 11:50 | -34.21503 | 18.68137 | 4492 ft | 149 kts | 341° |
| 2026-04-25 11:50 | -34.20517 | 18.67822 | 4473 ft | 143 kts | 341° |
| 2026-04-25 11:50 | -34.19564 | 18.67519 | 4310 ft | 137 kts | 342° |
| 2026-04-25 11:50 | -34.18675 | 18.67237 | 4133 ft | 129 kts | 342° |
| 2026-04-25 11:51 | -34.17808 | 18.66960 | 3961 ft | 129 kts | 343° |
| 2026-04-25 11:51 | -34.16934 | 18.66681 | 3793 ft | 130 kts | 343° |
| 2026-04-25 11:51 | -34.16060 | 18.66402 | 3623 ft | 130 kts | 343° |
| 2026-04-25 11:51 | -34.15188 | 18.66123 | 3452 ft | 130 kts | 343° |
| 2026-04-25 11:52 | -34.14315 | 18.65845 | 3282 ft | 131 kts | 344° |
| 2026-04-25 11:52 | -34.13430 | 18.65561 | 3113 ft | 132 kts | 343° |
| 2026-04-25 11:52 | -34.12552 | 18.65278 | 2937 ft | 133 kts | 344° |
| 2026-04-25 11:52 | -34.11651 | 18.64991 | 2758 ft | 135 kts | 343° |
| 2026-04-25 11:53 | -34.10741 | 18.64700 | 2577 ft | 133 kts | 343° |
| 2026-04-25 11:53 | -34.09890 | 18.64428 | 2402 ft | 121 kts | 343° |
| 2026-04-25 11:53 | -34.09101 | 18.64176 | 2244 ft | 115 kts | 343° |
| 2026-04-25 11:53 | -34.08341 | 18.63932 | 2097 ft | 112 kts | 343° |
| 2026-04-25 11:54 | -34.07594 | 18.63693 | 1949 ft | 111 kts | 342° |
| 2026-04-25 11:54 | -34.06849 | 18.63457 | 1802 ft | 108 kts | 343° |
| 2026-04-25 11:54 | -34.05475 | 18.63019 | 1524 ft | 98 kts | 341° |
| 2026-04-25 11:55 | -34.04834 | 18.62813 | 1398 ft | 93 kts | 341° |
| 2026-04-25 11:55 | -34.04220 | 18.62620 | 1276 ft | 90 kts | 342° |
| 2026-04-25 11:55 | -34.03619 | 18.62426 | 1158 ft | 89 kts | 341° |
| 2026-04-25 11:55 | -34.03018 | 18.62238 | 1040 ft | 88 kts | 344° |
| 2026-04-25 11:56 | -34.02437 | 18.62051 | 926 ft | 86 kts | 342° |
| 2026-04-25 11:56 | -34.01872 | 18.61857 | 817 ft | 83 kts | 345° |
| 2026-04-25 11:56 | -34.01334 | 18.61704 | 753 ft | 77 kts | 346° |
| 2026-04-25 11:56 | -34.00802 | 18.61530 | 625 ft | 80 kts | 345° |
| 2026-04-25 11:57 | -34.00273 | 18.61354 | 520 ft | 80 kts | 347° |
| 2026-04-25 11:57 | -33.99726 | 18.61193 | 390 ft | 82 kts | 348° |
| 2026-04-25 11:57 | -33.99179 | 18.61020 | 279 ft | 83 kts | 345° |
| 2026-04-25 11:57 | -33.98629 | 18.60841 | 167 ft | 82 kts | 344° |
| 2026-04-25 11:58 | -33.98160 | 18.60692 | 149 ft | 59 kts | 344° |
| 2026-04-25 11:58 | -33.97854 | 18.60595 | 148 ft | 20 kts | 347° |
| 2026-04-25 11:58 | -33.97786 | 18.60492 | 148 ft | 14 kts | 284° |
| 2026-04-25 11:58 | -33.97761 | 18.60397 | 148 ft | 10 kts | 283° |
| 2026-04-25 11:59 | -33.97749 | 18.60336 | 149 ft | 6 kts | 286° |
| 2026-04-25 11:59 | -33.97741 | 18.60304 | 149 ft | 2 kts | 288° |
| 2026-04-25 11:59 | -33.97739 | 18.60295 | 149 ft | 4 kts | 286° |
| 2026-04-25 12:00 | -33.97611 | 18.60144 | 149 ft | 19 kts | 337° |
| 2026-04-25 12:00 | -33.97507 | 18.60090 | 149 ft | 14 kts | 335° |
| 2026-04-25 12:00 | -33.97406 | 18.60034 | 150 ft | 4 kts | 270° |
| 2026-04-25 12:01 | -33.97411 | 18.60010 | 150 ft | 2 kts | 253° |
| 2026-04-25 12:01 | -33.97419 | 18.59978 | 150 ft | 7 kts | 252° |
| 2026-04-25 12:01 | -33.97421 | 18.59966 | 150 ft | 0 kts | 254° |